Aérodrome :
LOGIN :

S'inscrire | Disclaimer

   EN    FR    IT 

 










Légende :    VFR   VFR Marginal   IFR   IFR Intensif   IFR Très Intensif
Visi : 
Plafond : 
>= 8 km
>= 3000ft
5 à 8 km
1000 à 3000 ft
1500m à 5 km
500 à 1000 ft
800 à 1500m
200 à 500 ft
< 800m
< 200 ft
Symboles :   Orages  Brouillard  Fortes neiges  Fortes précipitations  Vent > 20 kt
SIGMETs :   Divers  Orages  Givrage  Turbulence  Onde Orograph.  Cendres Volcan.







- Altitude de l'aérodrome : 74 ft
- Code IATA : EIN


EHEH - Eindhoven

DERNIER METAR :
  • 251225Z AUTO 13003KT 030V150 9999 OVC043 16/05 Q1039 BLU VRB03KT 9999 SCT045

METARs EXPIRÉS :
  • 251155Z AUTO VRB02KT 9999 BKN041 BKN360 16/06 Q1039 BLU VRB03KT 9999 FEW040
  • 251125Z AUTO VRB02KT 9999 FEW040 15/04 Q1039 BLU VRB03KT 9999 FEW040
  • 251055Z AUTO VRB03KT 9999 FEW390 15/05 Q1039 BLU VRB03KT 9999 FEW030
  • 251025Z AUTO 10003KT 010V170 9999 NCD 15/06 Q1039 BLU VRB03KT 9999 FEW030
  • 250955Z AUTO VRB02KT 9999 NCD 14/06 Q1039 BLU VRB03KT 9999 FEW030

TAF TAF EHEH
Valide du 25 à 12h jusqu'au 26 à 18h UTC


251130Z 2512/2618 10003KT 9999 FEW040
BECMG 2515/2518 16004KT CAVOK
PROB30 2603/2606 4000 BR MIFG
BECMG 2606/2609 22007KT
Pas de NOTAMs connus pour ce terrain.



MET'MAP, la Météo Aéronautique d'un coup d'oeil ! - Copyright ORBIFLY Décembre 2007 - Disclaimer

ORBIFLY MET'MAP TEAM :

Programmation & Développement : Alexandra Zaïnal
Conception & Développement : Baudouin d'Aumeries
Co-Programmation & Développement : Marc-Olivier Méhu
Soutien technique & logistique : Manuel Goepfert

Contact : metmap@orbifly.com




SOURCES & CREDITS :

   NOAA